createdAt,value
2019-04-16T00:00:42.724Z,20.23
2019-04-16T00:03:11.102Z,27.47
2019-04-16T00:05:44.153Z,30.93
2019-04-16T00:08:27.466Z,30.63
2019-04-16T00:10:49.205Z,26.33
2019-04-16T00:13:28.904Z,32.63
2019-04-16T00:15:58.123Z,32.37
2019-04-16T00:18:26.944Z,35.57
2019-04-16T00:21:13.849Z,31.07
2019-04-16T00:24:00.639Z,38.30
2019-04-16T00:26:29.462Z,30.20
2019-04-16T00:29:01.617Z,33.60
2019-04-16T00:31:28.647Z,30.37
2019-04-16T00:33:57.396Z,35.53
2019-04-16T00:36:26.122Z,26.57
2019-04-16T00:38:54.853Z,31.20
2019-04-16T00:41:23.674Z,25.57
2019-04-16T00:43:52.405Z,33.67
2019-04-16T00:46:21.138Z,23.97
2019-04-16T00:48:49.970Z,29.80
2019-04-16T00:51:18.776Z,24.67
2019-04-16T00:53:47.614Z,31.50
2019-04-16T00:56:16.887Z,36.43
2019-04-16T00:58:45.771Z,25.30
2019-04-16T01:01:15.464Z,27.20
2019-04-16T01:03:44.225Z,27.67
2019-04-16T01:06:12.992Z,32.63
2019-04-16T01:08:53.931Z,35.43
2019-04-16T01:11:12.219Z,25.93
2019-04-16T01:13:40.989Z,42.47
2019-04-16T01:16:09.860Z,30.57
2019-04-16T01:18:39.342Z,30.47
2019-04-16T01:21:08.130Z,30.13
2019-04-16T01:23:36.925Z,32.27
2019-04-16T01:26:05.747Z,23.33
2019-04-16T01:28:42.352Z,42.37
2019-04-16T01:31:29.175Z,34.23
2019-04-16T01:34:05.140Z,29.93
2019-04-16T01:36:44.381Z,26.97
2019-04-16T01:39:17.996Z,28.00
2019-04-16T01:41:45.196Z,35.73
2019-04-16T01:44:14.001Z,21.37
2019-04-16T01:46:42.733Z,24.60
2019-04-16T01:49:11.612Z,30.83
2019-04-16T01:51:40.364Z,34.20
2019-04-16T01:54:09.197Z,22.60
2019-04-16T01:56:37.925Z,28.23
2019-04-16T01:59:06.888Z,23.17
2019-04-16T02:01:35.677Z,27.27
2019-04-16T02:04:04.409Z,30.27
2019-04-16T02:06:33.663Z,29.53
2019-04-16T02:09:03.270Z,22.47
2019-04-16T02:11:32.262Z,33.90
2019-04-16T02:14:01.105Z,25.80
2019-04-16T02:16:29.838Z,23.83
2019-04-16T02:19:01.281Z,31.37
2019-04-16T02:21:28.966Z,22.33
2019-04-16T02:23:57.706Z,28.27
2019-04-16T02:26:26.468Z,27.93
2019-04-16T02:28:56.511Z,38.53
2019-04-16T02:31:25.599Z,39.93
2019-04-16T02:33:54.358Z,37.20
2019-04-16T02:36:23.090Z,31.77
2019-04-16T02:38:53.143Z,23.00
2019-04-16T02:41:23.531Z,33.93
2019-04-16T02:43:52.830Z,27.37
2019-04-16T02:46:21.640Z,30.50
2019-04-16T02:48:51.615Z,49.93
2019-04-16T02:51:41.357Z,40.77
2019-04-16T02:54:16.155Z,36.77
2019-04-16T02:56:53.114Z,44.63
2019-04-16T02:59:23.566Z,37.10
2019-04-16T03:01:53.949Z,29.63
2019-04-16T03:04:26.939Z,55.73
2019-04-16T03:06:54.717Z,36.17
2019-04-16T03:09:23.453Z,34.20
2019-04-16T03:11:52.221Z,40.13
2019-04-16T03:14:20.955Z,29.67
2019-04-16T03:16:59.997Z,38.57
2019-04-16T03:19:30.357Z,32.20
2019-04-16T03:22:01.808Z,33.93
2019-04-16T03:24:29.489Z,33.47
2019-04-16T03:26:58.208Z,40.87
2019-04-16T03:29:27.525Z,28.73
2019-04-16T03:31:59.375Z,25.90
2019-04-16T03:34:27.898Z,26.90
2019-04-16T03:36:58.657Z,39.47
2019-04-16T03:39:27.034Z,34.03
2019-04-16T03:41:56.290Z,24.87
2019-04-16T03:44:25.725Z,34.13
2019-04-16T03:46:54.453Z,41.90
2019-04-16T03:49:24.511Z,18.70
2019-04-16T03:51:53.589Z,25.97
2019-04-16T03:54:22.630Z,34.93
2019-04-16T03:56:52.114Z,35.53
2019-04-16T03:59:20.875Z,49.70
2019-04-16T04:01:49.638Z,35.03
2019-04-16T04:04:18.365Z,44.00
2019-04-16T04:06:47.195Z,36.20
2019-04-16T04:09:18.724Z,38.13
2019-04-16T04:11:47.570Z,33.30
2019-04-16T04:14:16.406Z,31.67
2019-04-16T04:16:45.198Z,40.43
2019-04-16T04:19:15.720Z,31.47
2019-04-16T04:21:44.405Z,29.30
2019-04-16T04:24:13.134Z,25.20
2019-04-16T04:26:42.389Z,32.70
2019-04-16T04:29:11.326Z,28.30
2019-04-16T04:31:40.165Z,36.03
2019-04-16T04:34:10.688Z,37.77
2019-04-16T04:36:39.314Z,44.93
2019-04-16T04:39:09.563Z,27.83
2019-04-16T04:41:39.226Z,40.47
2019-04-16T04:44:08.059Z,34.93
2019-04-16T04:46:36.894Z,26.77
2019-04-16T04:49:05.609Z,40.23
2019-04-16T04:51:36.848Z,25.03
2019-04-16T04:54:04.777Z,23.27
2019-04-16T04:56:33.505Z,35.70
2019-04-16T04:59:02.416Z,31.33
2019-04-16T05:01:32.711Z,30.07
2019-04-16T05:04:03.014Z,40.10
2019-04-16T05:06:43.052Z,30.60
2019-04-16T05:09:11.781Z,35.73
2019-04-16T05:11:40.510Z,32.57
2019-04-16T05:14:09.316Z,35.60
2019-04-16T05:16:38.046Z,35.23
2019-04-16T05:19:06.777Z,29.90
2019-04-16T05:21:35.525Z,39.20
2019-04-16T05:24:04.257Z,34.33
2019-04-16T05:26:33.508Z,36.90
2019-04-16T05:29:16.555Z,30.03
2019-04-16T05:31:43.465Z,31.10
2019-04-16T05:34:12.190Z,33.07
2019-04-16T05:36:46.556Z,40.93
2019-04-16T05:39:11.309Z,35.63
2019-04-16T05:41:40.029Z,32.47
2019-04-16T05:44:08.779Z,29.63
2019-04-16T05:46:38.381Z,39.00
2019-04-16T05:49:07.268Z,35.73
2019-04-16T05:51:36.030Z,39.33
2019-04-16T05:54:12.381Z,37.60
2019-04-16T05:56:43.825Z,29.17
2019-04-16T05:59:12.553Z,28.17
2019-04-16T06:01:45.470Z,47.40
2019-04-16T06:04:13.330Z,32.63
2019-04-16T06:06:42.057Z,39.87
2019-04-16T06:09:12.197Z,27.27
2019-04-16T06:11:41.178Z,26.13
2019-04-16T06:14:17.594Z,36.70
2019-04-16T06:16:56.825Z,29.63
2019-04-16T06:19:30.423Z,29.13
2019-04-16T06:22:06.611Z,36.57
2019-04-16T06:24:45.946Z,38.47
2019-04-16T06:27:28.438Z,26.23
2019-04-16T06:30:02.351Z,37.80
2019-04-16T06:32:41.771Z,33.70
2019-04-16T06:35:42.551Z,28.43
2019-04-16T06:38:04.945Z,35.20
2019-04-16T06:40:50.698Z,22.77
2019-04-16T06:43:31.812Z,24.33
2019-04-16T06:46:08.542Z,29.40
2019-04-16T06:48:51.842Z,40.73
2019-04-16T06:51:43.596Z,39.67
2019-04-16T06:54:19.158Z,31.73
2019-04-16T06:57:05.669Z,41.73
2019-04-16T06:59:38.965Z,18.30
2019-04-16T07:02:10.556Z,40.93
2019-04-16T07:04:44.140Z,29.43
2019-04-16T07:07:14.502Z,45.40
2019-04-16T07:09:46.003Z,39.73
2019-04-16T07:12:16.494Z,30.73
2019-04-16T07:14:45.636Z,32.63
2019-04-16T07:17:17.868Z,32.63
2019-04-16T07:19:46.099Z,28.00
2019-04-16T07:22:20.950Z,47.83
2019-04-16T07:24:45.281Z,36.13
2019-04-16T07:27:19.589Z,41.37
2019-04-16T07:29:46.855Z,47.90
2019-04-16T07:32:20.424Z,49.40
2019-04-16T07:34:56.833Z,32.17
2019-04-16T07:37:43.421Z,50.63
2019-04-16T07:40:13.917Z,38.83
2019-04-16T07:42:59.631Z,44.50
2019-04-16T07:45:38.966Z,41.67
2019-04-16T07:48:09.432Z,37.70
2019-04-16T07:50:45.818Z,44.60
2019-04-16T07:53:19.029Z,47.30
2019-04-16T07:55:58.646Z,46.40
2019-04-16T07:58:27.384Z,32.20
2019-04-16T08:00:56.320Z,30.40
2019-04-16T08:03:26.859Z,31.20
2019-04-16T08:05:55.737Z,41.23
2019-04-16T08:08:25.370Z,37.37
2019-04-16T08:10:54.306Z,35.70
2019-04-16T08:13:23.499Z,42.30
2019-04-16T08:15:52.225Z,41.67
2019-04-16T08:18:20.978Z,35.30
2019-04-16T08:21:00.462Z,40.07
2019-04-16T08:23:33.750Z,41.57
2019-04-16T08:26:07.927Z,45.83
2019-04-16T08:28:34.614Z,37.63
2019-04-16T08:31:04.144Z,42.33
2019-04-16T08:33:32.875Z,68.10
2019-04-16T08:36:01.607Z,46.87
2019-04-16T08:38:34.151Z,28.73
2019-04-16T08:41:00.855Z,37.13
2019-04-16T08:43:29.900Z,34.60
2019-04-16T08:45:59.336Z,34.63
2019-04-16T08:48:28.066Z,48.13
2019-04-16T08:50:58.408Z,46.93
2019-04-16T08:53:27.206Z,24.57
2019-04-16T08:55:56.187Z,42.77
2019-04-16T08:58:24.974Z,43.30
2019-04-16T09:00:53.807Z,37.77
2019-04-16T09:03:22.535Z,35.77
2019-04-16T09:05:51.314Z,51.63
2019-04-16T09:08:38.010Z,49.67
2019-04-16T09:11:06.836Z,33.00
2019-04-16T09:13:48.133Z,38.77
2019-04-16T09:16:16.643Z,40.43
2019-04-16T09:18:47.006Z,35.17
2019-04-16T09:21:15.834Z,39.47
2019-04-16T09:23:46.193Z,46.17
2019-04-16T09:26:23.594Z,36.53
2019-04-16T09:28:51.715Z,82.13
2019-04-16T09:31:34.366Z,61.20
2019-04-16T09:34:06.397Z,30.20
2019-04-16T09:36:52.842Z,29.50
2019-04-16T09:39:29.110Z,37.50
2019-04-16T09:41:57.806Z,31.17
2019-04-16T09:44:29.669Z,43.70
2019-04-16T09:46:59.815Z,35.60
2019-04-16T09:49:27.392Z,56.87
2019-04-16T09:51:56.118Z,31.97
2019-04-16T09:54:24.885Z,35.33
2019-04-16T09:56:53.686Z,31.27
2019-04-16T09:59:24.086Z,49.63
2019-04-16T10:01:54.455Z,47.40
2019-04-16T10:04:23.275Z,45.53
2019-04-16T10:06:52.283Z,29.37
2019-04-16T10:09:22.530Z,30.57
2019-04-16T10:11:51.544Z,34.37
2019-04-16T10:14:20.286Z,41.23
2019-04-16T10:16:49.087Z,32.03
2019-04-16T10:19:21.046Z,44.53
2019-04-16T10:21:53.355Z,30.00
2019-04-16T10:24:23.286Z,34.27
2019-04-16T10:26:56.946Z,34.83
2019-04-16T10:29:27.025Z,34.53
2019-04-16T10:31:56.078Z,29.73
2019-04-16T10:34:24.874Z,35.63
2019-04-16T10:36:53.663Z,43.10
2019-04-16T10:39:27.256Z,33.27
2019-04-16T10:41:57.637Z,26.67
2019-04-16T10:44:30.988Z,25.93
2019-04-16T10:47:01.388Z,38.60
2019-04-16T10:49:31.777Z,46.80
2019-04-16T10:52:18.542Z,28.87
2019-04-16T10:54:54.722Z,30.43
2019-04-16T10:57:30.819Z,29.17
2019-04-16T11:00:01.175Z,42.53
2019-04-16T11:02:47.807Z,39.87
2019-04-16T11:05:19.068Z,35.73
2019-04-16T11:07:50.191Z,35.00
2019-04-16T11:10:19.223Z,38.53
2019-04-16T11:12:48.082Z,34.33
2019-04-16T11:15:18.752Z,40.93
2019-04-16T11:17:47.592Z,47.60
2019-04-16T11:20:16.443Z,34.97
2019-04-16T11:22:45.221Z,32.43
2019-04-16T11:25:14.077Z,33.77
2019-04-16T11:27:42.910Z,33.13
2019-04-16T11:30:13.841Z,34.13
2019-04-16T11:32:42.678Z,40.70
2019-04-16T11:35:13.385Z,37.73
2019-04-16T11:37:44.510Z,31.93
2019-04-16T11:40:12.620Z,29.47
2019-04-16T11:42:41.381Z,31.00
2019-04-16T11:45:10.867Z,31.83
2019-04-16T11:47:39.714Z,32.97
2019-04-16T11:50:08.627Z,31.00
2019-04-16T11:52:39.939Z,25.20
2019-04-16T11:55:07.906Z,37.70
2019-04-16T11:57:36.632Z,54.70
2019-04-16T12:00:13.907Z,29.20
2019-04-16T12:03:00.719Z,33.80
2019-04-16T12:05:34.078Z,41.50
2019-04-16T12:08:06.870Z,39.43
2019-04-16T12:10:40.264Z,39.57
2019-04-16T12:13:25.945Z,24.03
2019-04-16T12:16:08.545Z,23.53
2019-04-16T12:18:44.810Z,26.53
2019-04-16T12:21:15.210Z,33.10
2019-04-16T12:23:48.608Z,29.83
2019-04-16T12:26:24.684Z,37.63
2019-04-16T12:28:57.826Z,29.10
2019-04-16T12:31:44.743Z,45.73
2019-04-16T12:34:15.130Z,37.17
2019-04-16T12:37:01.652Z,29.17
2019-04-16T12:39:41.085Z,32.03
2019-04-16T12:42:11.439Z,30.53
2019-04-16T12:44:46.045Z,35.40
2019-04-16T12:47:33.250Z,31.43
2019-04-16T12:50:17.138Z,30.17
2019-04-16T12:52:56.696Z,27.73
2019-04-16T12:55:32.829Z,37.90
2019-04-16T12:58:03.234Z,29.27
2019-04-16T13:00:48.927Z,41.97
2019-04-16T13:03:28.296Z,40.57
2019-04-16T13:06:15.079Z,23.40
2019-04-16T13:08:45.470Z,36.10
2019-04-16T13:11:18.826Z,28.67
2019-04-16T13:13:52.102Z,19.67
2019-04-16T13:16:22.467Z,36.40
2019-04-16T13:19:07.904Z,28.40
2019-04-16T13:21:50.300Z,37.40
2019-04-16T13:24:38.741Z,36.53
2019-04-16T13:27:11.954Z,33.33
2019-04-16T13:29:40.681Z,30.90
2019-04-16T13:32:09.499Z,44.03
2019-04-16T13:34:38.258Z,23.47
2019-04-16T13:37:07.057Z,36.13
2019-04-16T13:39:43.614Z,27.47
2019-04-16T13:42:12.598Z,41.50
2019-04-16T13:44:42.938Z,48.97
2019-04-16T13:47:11.791Z,34.37
2019-04-16T13:49:42.121Z,35.20
2019-04-16T13:52:10.850Z,28.27
2019-04-16T13:54:41.216Z,33.23
2019-04-16T13:57:17.245Z,30.00
2019-04-16T14:00:04.874Z,50.47
2019-04-16T14:02:43.498Z,37.87
2019-04-16T14:05:12.601Z,28.27
2019-04-16T14:07:41.406Z,33.47
2019-04-16T14:10:10.977Z,35.30
2019-04-16T14:12:42.866Z,39.07
2019-04-16T14:15:11.145Z,36.27
2019-04-16T14:17:52.487Z,35.17
2019-04-16T14:20:12.693Z,30.10
2019-04-16T14:22:41.826Z,29.33
2019-04-16T14:25:10.998Z,20.87
2019-04-16T14:27:39.915Z,40.97
2019-04-16T14:30:13.494Z,36.37
2019-04-16T14:32:42.250Z,34.67
2019-04-16T14:35:12.724Z,40.23
2019-04-16T14:37:41.654Z,37.37
2019-04-16T14:40:12.047Z,30.20
2019-04-16T14:42:40.865Z,35.33
2019-04-16T14:45:27.155Z,36.60
2019-04-16T14:47:57.766Z,50.20
2019-04-16T14:50:26.622Z,23.97
2019-04-16T14:52:55.376Z,30.20
2019-04-16T14:55:59.086Z,20.07
2019-04-16T14:58:24.974Z,38.10
2019-04-16T15:01:11.738Z,21.27
2019-04-16T15:04:00.663Z,30.47
2019-04-16T15:06:43.405Z,25.13
2019-04-16T15:09:29.107Z,14.20
2019-04-16T15:12:14.500Z,36.60
2019-04-16T15:15:01.055Z,27.87
2019-04-16T15:17:34.513Z,31.97
2019-04-16T15:20:11.114Z,59.63
2019-04-16T15:22:41.509Z,31.50
2019-04-16T15:25:28.406Z,21.33
2019-04-16T15:28:07.594Z,28.53
2019-04-16T15:30:53.067Z,34.03
2019-04-16T15:33:26.605Z,20.03
2019-04-16T15:35:56.972Z,16.73
2019-04-16T15:38:29.648Z,24.13
2019-04-16T15:41:02.437Z,20.03
2019-04-16T15:43:50.911Z,31.37
2019-04-16T15:46:28.471Z,34.30
2019-04-16T15:48:53.273Z,27.90
2019-04-16T15:51:29.226Z,24.53
2019-04-16T15:54:11.501Z,19.87
2019-04-16T15:56:47.942Z,36.30
2019-04-16T15:59:21.269Z,20.00
2019-04-16T16:02:07.842Z,26.33
2019-04-16T16:04:41.382Z,27.93
2019-04-16T16:07:10.485Z,29.33
2019-04-16T16:09:58.915Z,26.70
2019-04-16T16:12:28.431Z,21.33
2019-04-16T16:14:57.218Z,26.47
2019-04-16T16:17:26.042Z,25.40
2019-04-16T16:19:55.031Z,31.13
2019-04-16T16:22:24.065Z,27.47
2019-04-16T16:24:52.836Z,35.13
2019-04-16T16:27:21.561Z,22.13
2019-04-16T16:29:50.313Z,27.07
2019-04-16T16:32:19.142Z,18.43
2019-04-16T16:34:47.951Z,19.07
2019-04-16T16:37:16.745Z,22.50
2019-04-16T16:39:45.569Z,30.63
2019-04-16T16:42:14.296Z,27.80
2019-04-16T16:44:43.023Z,21.60
2019-04-16T16:47:13.426Z,23.03
2019-04-16T16:49:42.146Z,26.00
2019-04-16T16:52:28.852Z,16.53
2019-04-16T16:54:59.234Z,21.73
2019-04-16T16:57:44.326Z,26.63
2019-04-16T17:00:29.902Z,32.80
2019-04-16T17:03:00.269Z,23.73
2019-04-16T17:05:30.638Z,22.70
2019-04-16T17:07:59.387Z,20.57
2019-04-16T17:10:28.121Z,20.47
2019-04-16T17:12:56.845Z,19.43
2019-04-16T17:15:25.620Z,19.53
2019-04-16T17:17:54.355Z,18.00
2019-04-16T17:20:23.088Z,29.13
2019-04-16T17:22:51.841Z,24.40
2019-04-16T17:25:35.268Z,18.27
2019-04-16T17:27:51.934Z,22.43
2019-04-16T17:30:20.831Z,21.20
2019-04-16T17:32:49.637Z,21.20
2019-04-16T17:35:18.363Z,25.63
2019-04-16T17:37:47.122Z,23.07
2019-04-16T17:40:32.853Z,35.03
2019-04-16T17:43:03.336Z,29.17
2019-04-16T17:45:48.987Z,22.33
2019-04-16T17:48:35.643Z,27.80
2019-04-16T17:51:10.624Z,16.67
2019-04-16T17:53:41.072Z,29.93
2019-04-16T17:56:14.142Z,20.30
2019-04-16T17:58:47.542Z,27.30
2019-04-16T18:01:34.410Z,23.47
2019-04-16T18:04:11.603Z,20.60
2019-04-16T18:06:48.138Z,26.83
2019-04-16T18:09:18.781Z,29.93
2019-04-16T18:11:49.109Z,13.47
2019-04-16T18:14:28.221Z,20.83
2019-04-16T18:17:14.877Z,26.37
2019-04-16T18:19:47.955Z,15.63
2019-04-16T18:22:24.347Z,14.07
2019-04-16T18:24:57.443Z,20.60
2019-04-16T18:27:42.962Z,22.40
2019-04-16T18:30:17.520Z,26.90
2019-04-16T18:33:06.897Z,25.07
2019-04-16T18:35:45.717Z,22.60
2019-04-16T18:38:25.130Z,20.30
2019-04-16T18:40:55.530Z,15.07
2019-04-16T18:43:43.986Z,20.20
2019-04-16T18:46:27.059Z,13.83
2019-04-16T18:49:04.507Z,20.93
2019-04-16T18:51:34.287Z,13.00
2019-04-16T18:54:03.197Z,16.73
2019-04-16T18:56:31.922Z,15.27
2019-04-16T18:59:00.890Z,12.50
2019-04-16T19:01:32.563Z,20.00
2019-04-16T19:04:01.753Z,15.20
2019-04-16T19:06:30.515Z,24.43
2019-04-16T19:08:59.226Z,20.30
2019-04-16T19:11:28.010Z,18.30
2019-04-16T19:13:56.763Z,16.83
2019-04-16T19:16:25.493Z,10.33
2019-04-16T19:18:54.218Z,20.67
2019-04-16T19:21:22.995Z,19.67
2019-04-16T19:23:51.796Z,23.77
2019-04-16T19:26:20.519Z,16.60
2019-04-16T19:28:49.371Z,9.57
2019-04-16T19:31:22.819Z,17.70
2019-04-16T19:33:48.498Z,20.10
2019-04-16T19:36:19.771Z,25.60
2019-04-16T19:38:47.973Z,17.60
2019-04-16T19:41:16.781Z,23.83
2019-04-16T19:43:45.497Z,20.20
2019-04-16T19:46:15.598Z,16.83
2019-04-16T19:48:45.630Z,30.00
2019-04-16T19:51:14.392Z,17.53
2019-04-16T19:53:44.589Z,19.40
2019-04-16T19:56:15.619Z,17.17
2019-04-16T19:58:44.319Z,30.20
2019-04-16T20:01:14.704Z,27.73
2019-04-16T20:03:43.950Z,25.10
2019-04-16T20:06:12.710Z,27.83
2019-04-16T20:08:41.523Z,25.23
2019-04-16T20:11:11.281Z,19.23
2019-04-16T20:13:40.078Z,12.23
2019-04-16T20:16:09.091Z,18.60
2019-04-16T20:18:50.194Z,17.63
2019-04-16T20:21:08.331Z,31.43
2019-04-16T20:23:37.062Z,17.77
2019-04-16T20:26:05.971Z,12.43
2019-04-16T20:28:34.719Z,9.33
2019-04-16T20:31:04.705Z,19.40
2019-04-16T20:33:33.639Z,17.70
2019-04-16T20:36:02.406Z,19.63
2019-04-16T20:38:31.138Z,17.13
2019-04-16T20:40:59.861Z,18.63
2019-04-16T20:43:28.629Z,25.17
2019-04-16T20:45:57.355Z,15.53
2019-04-16T20:48:26.103Z,19.07
2019-04-16T20:50:58.804Z,15.37
2019-04-16T20:53:25.382Z,21.00
2019-04-16T20:55:54.109Z,22.50
2019-04-16T21:01:33.043Z,26.10
2019-04-16T21:04:03.803Z,13.20
2019-04-16T21:06:27.046Z,19.27
2019-04-16T21:08:57.169Z,14.87
2019-04-16T21:11:26.285Z,14.87
2019-04-16T21:13:55.037Z,23.63
2019-04-16T21:16:23.766Z,7.03
2019-04-16T21:18:52.483Z,15.27
2019-04-16T21:21:23.595Z,17.03
2019-04-16T21:23:51.678Z,20.17
2019-04-16T21:26:20.513Z,24.13
2019-04-16T21:29:02.199Z,15.40
2019-04-16T21:31:34.470Z,20.97
2019-04-16T21:34:07.582Z,18.17
2019-04-16T21:36:38.047Z,19.23
2019-04-16T21:39:21.344Z,15.17
2019-04-16T21:41:50.070Z,15.53
2019-04-16T21:44:18.794Z,14.50
2019-04-16T21:46:52.020Z,21.60
2019-04-16T21:49:17.930Z,22.93
2019-04-16T21:52:04.658Z,26.10
2019-04-16T21:54:33.410Z,16.50
2019-04-16T21:57:02.231Z,19.00
2019-04-16T21:59:31.148Z,15.63
2019-04-16T22:02:00.138Z,21.47
2019-04-16T22:04:28.885Z,15.67
2019-04-16T22:06:57.803Z,11.93
2019-04-16T22:09:26.638Z,27.50
2019-04-16T22:11:55.459Z,15.10
2019-04-16T22:14:24.193Z,19.37
2019-04-16T22:16:52.919Z,15.17
2019-04-16T22:19:21.662Z,16.33
2019-04-16T22:21:50.398Z,15.07
2019-04-16T22:24:19.785Z,11.20
2019-04-16T22:26:49.533Z,21.60
2019-04-16T22:29:18.256Z,19.03
2019-04-16T22:31:47.155Z,8.07
2019-04-16T22:34:15.914Z,17.63
2019-04-16T22:36:44.676Z,17.60
2019-04-16T22:39:27.145Z,16.67
2019-04-16T22:42:00.337Z,18.90
2019-04-16T22:44:30.736Z,21.80
2019-04-16T22:47:01.149Z,19.23
2019-04-16T22:49:29.946Z,20.47
2019-04-16T22:51:58.774Z,17.27
2019-04-16T22:54:27.541Z,14.87
2019-04-16T22:57:02.657Z,19.60
2019-04-16T22:59:31.014Z,16.07
2019-04-16T23:01:59.929Z,16.97
2019-04-16T23:04:28.657Z,15.10
2019-04-16T23:06:57.405Z,10.10
2019-04-16T23:09:28.072Z,15.57
2019-04-16T23:11:57.175Z,15.60
2019-04-16T23:14:26.083Z,20.40
2019-04-16T23:16:54.877Z,15.67
2019-04-16T23:19:23.597Z,10.43
2019-04-16T23:21:52.365Z,7.07
2019-04-16T23:24:23.506Z,9.93
2019-04-16T23:26:51.525Z,22.93
2019-04-16T23:29:20.285Z,11.50
2019-04-16T23:31:49.125Z,15.60
2019-04-16T23:34:17.894Z,14.70
2019-04-16T23:36:48.703Z,14.83
2019-04-16T23:39:17.586Z,16.23
2019-04-16T23:41:48.214Z,14.70
2019-04-16T23:44:18.413Z,11.57
2019-04-16T23:46:48.884Z,17.67
2019-04-16T23:49:34.390Z,10.87
2019-04-16T23:52:10.801Z,12.80
2019-04-16T23:54:56.226Z,14.20
2019-04-16T23:57:26.593Z,17.73
2019-04-16T23:59:56.958Z,15.27
